createdAt,value
2018-07-17T00:00:11.155Z,69.68
2018-07-17T00:01:17.230Z,69.95
2018-07-17T00:02:23.235Z,69.56
2018-07-17T00:03:29.583Z,69.85
2018-07-17T00:04:35.767Z,70.09
2018-07-17T00:05:41.960Z,70.66
2018-07-17T00:06:47.288Z,70.38
2018-07-17T00:07:53.274Z,69.99
2018-07-17T00:08:59.595Z,71.14
2018-07-17T00:10:05.137Z,70.02
2018-07-17T00:11:11.147Z,70.96
2018-07-17T00:12:16.817Z,70.63
2018-07-17T00:13:22.831Z,72.07
2018-07-17T00:14:28.414Z,69.98
2018-07-17T00:15:35.322Z,69.78
2018-07-17T00:16:41.328Z,70.75
2018-07-17T00:17:47.340Z,71.14
2018-07-17T00:18:53.323Z,71.61
2018-07-17T00:19:59.338Z,72.00
2018-07-17T00:21:04.959Z,72.53
2018-07-17T00:22:10.918Z,72.25
2018-07-17T00:23:16.886Z,73.06
2018-07-17T00:24:23.124Z,74.02
2018-07-17T00:25:32.124Z,72.41
2018-07-17T00:26:38.108Z,72.00
2018-07-17T00:27:44.096Z,73.36
2018-07-17T00:28:50.142Z,73.83
2018-07-17T00:29:56.141Z,72.93
2018-07-17T00:31:02.429Z,73.17
2018-07-17T00:32:08.388Z,72.99
2018-07-17T00:33:14.649Z,73.17
2018-07-17T00:34:20.703Z,73.02
2018-07-17T00:35:26.694Z,72.29
2018-07-17T00:36:32.683Z,70.86
2018-07-17T00:37:38.675Z,72.74
2018-07-17T00:38:44.934Z,72.90
2018-07-17T00:39:51.176Z,73.07
2018-07-17T00:40:56.827Z,73.25
2018-07-17T00:42:02.788Z,73.11
2018-07-17T00:43:08.808Z,73.23
2018-07-17T00:44:14.802Z,72.95
2018-07-17T00:45:20.819Z,73.10
2018-07-17T00:46:27.561Z,72.92
2018-07-17T00:47:33.161Z,73.50
2018-07-17T00:48:39.439Z,73.75
2018-07-17T00:49:45.426Z,74.15
2018-07-17T00:50:51.658Z,75.83
2018-07-17T00:51:57.625Z,76.30
2018-07-17T00:53:03.597Z,75.93
2018-07-17T00:54:09.848Z,76.15
2018-07-17T00:55:15.882Z,74.07
2018-07-17T00:56:21.860Z,73.94
2018-07-17T00:57:27.818Z,73.77
2018-07-17T00:58:33.806Z,71.20
2018-07-17T00:59:42.775Z,69.97
2018-07-17T01:00:48.244Z,69.30
2018-07-17T01:01:58.447Z,69.20
2018-07-17T01:03:09.367Z,68.92
2018-07-17T01:04:21.097Z,69.54
2018-07-17T01:05:32.670Z,69.60
2018-07-17T01:06:44.158Z,69.27
2018-07-17T01:07:55.527Z,69.44
2018-07-17T01:09:07.225Z,69.13
2018-07-17T01:10:18.564Z,69.07
2018-07-17T01:11:30.023Z,69.39
2018-07-17T01:12:35.232Z,69.36
2018-07-17T01:13:41.000Z,71.89
2018-07-17T01:14:46.706Z,74.14
2018-07-17T01:15:52.140Z,74.01
2018-07-17T01:16:58.093Z,73.34
2018-07-17T01:18:03.161Z,72.10
2018-07-17T01:19:09.466Z,71.37
2018-07-17T01:20:14.747Z,71.12
2018-07-17T01:21:20.671Z,70.59
2018-07-17T01:22:26.644Z,73.42
2018-07-17T01:23:32.650Z,74.54
2018-07-17T01:24:38.677Z,74.78
2018-07-17T01:25:44.674Z,74.14
2018-07-17T01:26:50.659Z,73.91
2018-07-17T01:27:56.613Z,74.81
2018-07-17T01:29:02.619Z,75.02
2018-07-17T01:30:08.906Z,73.78
2018-07-17T01:31:14.925Z,72.75
2018-07-17T01:32:20.920Z,72.75
2018-07-17T01:33:27.157Z,71.67
2018-07-17T01:34:33.135Z,70.98
2018-07-17T01:35:39.164Z,70.62
2018-07-17T01:36:45.101Z,70.17
2018-07-17T01:37:51.047Z,71.42
2018-07-17T01:38:57.035Z,71.98
2018-07-17T01:40:03.346Z,72.91
2018-07-17T01:41:09.396Z,74.03
2018-07-17T01:42:15.370Z,74.10
2018-07-17T01:43:21.355Z,75.32
2018-07-17T01:44:27.345Z,75.68
2018-07-17T01:45:33.824Z,75.51
2018-07-17T01:46:39.818Z,73.73
2018-07-17T01:47:45.798Z,73.36
2018-07-17T01:48:52.046Z,73.97
2018-07-17T01:49:58.021Z,74.32
2018-07-17T01:51:04.239Z,75.46
2018-07-17T01:52:09.867Z,76.05
2018-07-17T01:53:15.844Z,75.06
2018-07-17T01:54:21.849Z,75.06
2018-07-17T01:55:27.854Z,76.26
2018-07-17T01:56:33.448Z,76.85
2018-07-17T01:57:39.457Z,75.93
2018-07-17T01:58:45.473Z,75.26
2018-07-17T01:59:51.489Z,74.20
2018-07-17T02:00:57.823Z,74.78
2018-07-17T02:02:03.186Z,74.62
2018-07-17T02:03:09.760Z,73.56
2018-07-17T02:04:15.745Z,73.39
2018-07-17T02:05:21.780Z,73.14
2018-07-17T02:06:27.753Z,74.30
2018-07-17T02:07:33.723Z,76.84
2018-07-17T02:08:39.665Z,77.68
2018-07-17T02:09:45.658Z,78.29
2018-07-17T02:10:51.627Z,77.55
2018-07-17T02:11:57.657Z,76.69
2018-07-17T02:13:03.924Z,75.36
2018-07-17T02:14:09.947Z,74.59
2018-07-17T02:15:15.908Z,73.73
2018-07-17T02:16:21.918Z,72.70
2018-07-17T02:17:27.880Z,72.45
2018-07-17T02:18:33.860Z,71.08
2018-07-17T02:19:39.872Z,74.86
2018-07-17T02:20:45.850Z,76.11
2018-07-17T02:21:51.821Z,77.12
2018-07-17T02:22:57.846Z,76.99
2018-07-17T02:24:04.140Z,76.60
2018-07-17T02:25:10.129Z,77.51
2018-07-17T02:26:17.009Z,77.19
2018-07-17T02:27:23.021Z,77.30
2018-07-17T02:28:29.005Z,76.98
2018-07-17T02:29:35.067Z,76.06
2018-07-17T02:30:41.040Z,75.82
2018-07-17T02:31:46.666Z,75.67
2018-07-17T02:32:52.919Z,76.02
2018-07-17T02:33:59.137Z,76.29
2018-07-17T02:35:04.466Z,76.24
2018-07-17T02:36:10.443Z,75.76
2018-07-17T02:37:16.013Z,77.15
2018-07-17T02:38:21.629Z,77.34
2018-07-17T02:39:27.627Z,78.97
2018-07-17T02:40:33.629Z,78.48
2018-07-17T02:41:39.304Z,77.38
2018-07-17T02:42:45.544Z,75.70
2018-07-17T02:43:51.498Z,75.66
2018-07-17T02:44:57.811Z,75.76
2018-07-17T02:46:03.763Z,75.41
2018-07-17T02:47:09.771Z,74.41
2018-07-17T02:48:15.987Z,74.10
2018-07-17T02:49:21.981Z,73.79
2018-07-17T02:50:27.967Z,72.98
2018-07-17T02:51:33.958Z,73.09
2018-07-17T02:52:39.900Z,73.87
2018-07-17T02:53:46.126Z,73.58
2018-07-17T02:54:52.117Z,76.32
2018-07-17T02:55:58.155Z,78.08
2018-07-17T02:57:04.106Z,77.50
2018-07-17T02:58:10.111Z,77.36
2018-07-17T02:59:16.097Z,77.94
2018-07-17T03:00:22.113Z,77.35
2018-07-17T03:01:28.123Z,76.27
2018-07-17T03:02:34.148Z,74.86
2018-07-17T03:03:40.537Z,74.29
2018-07-17T03:04:46.539Z,73.32
2018-07-17T03:05:52.527Z,72.99
2018-07-17T03:06:58.580Z,73.15
2018-07-17T03:08:04.043Z,73.18
2018-07-17T03:09:10.327Z,72.76
2018-07-17T03:10:15.973Z,71.89
2018-07-17T03:11:22.016Z,71.00
2018-07-17T03:12:27.984Z,70.76
2018-07-17T03:13:33.975Z,68.89
2018-07-17T03:14:39.995Z,68.40
2018-07-17T03:15:46.280Z,68.46
2018-07-17T03:16:52.265Z,68.49
2018-07-17T03:17:58.225Z,68.04
2018-07-17T03:19:03.484Z,66.83
2018-07-17T03:20:09.492Z,66.13
2018-07-17T03:21:15.477Z,66.95
2018-07-17T03:22:21.453Z,66.21
2018-07-17T03:23:27.411Z,64.96
2018-07-17T03:24:33.698Z,64.02
2018-07-17T03:25:39.940Z,63.95
2018-07-17T03:26:45.924Z,64.21
2018-07-17T03:27:51.918Z,63.84
2018-07-17T03:28:57.867Z,62.95
2018-07-17T03:30:03.798Z,62.46
2018-07-17T03:31:09.793Z,62.31
2018-07-17T03:32:15.755Z,62.11
2018-07-17T03:33:21.989Z,61.85
2018-07-17T03:34:27.984Z,61.93
2018-07-17T03:35:33.992Z,62.49
2018-07-17T03:36:39.994Z,62.42
2018-07-17T03:37:45.294Z,62.16
2018-07-17T03:38:51.806Z,62.44
2018-07-17T03:39:58.359Z,62.88
2018-07-17T03:41:04.358Z,62.29
2018-07-17T03:42:10.346Z,62.46
2018-07-17T03:43:16.342Z,62.61
2018-07-17T03:44:22.416Z,62.72
2018-07-17T03:45:28.436Z,62.85
2018-07-17T03:46:34.419Z,62.83
2018-07-17T03:47:40.102Z,62.59
2018-07-17T03:48:46.060Z,62.74
2018-07-17T03:49:52.074Z,62.10
2018-07-17T03:50:58.354Z,62.58
2018-07-17T03:52:03.964Z,62.69
2018-07-17T03:53:09.960Z,62.60
2018-07-17T03:54:16.279Z,63.70
2018-07-17T03:55:22.339Z,63.23
2018-07-17T03:56:28.301Z,64.75
2018-07-17T03:57:34.487Z,64.86
2018-07-17T03:58:40.462Z,64.97
2018-07-17T03:59:46.471Z,65.26
2018-07-17T04:00:52.531Z,65.92
2018-07-17T04:01:58.548Z,65.40
2018-07-17T04:03:04.856Z,65.79
2018-07-17T04:04:10.926Z,65.62
2018-07-17T04:05:16.607Z,65.64
2018-07-17T04:06:22.609Z,65.14
2018-07-17T04:07:28.592Z,65.81
2018-07-17T04:08:34.698Z,64.74
2018-07-17T04:09:40.842Z,64.42
2018-07-17T04:10:46.552Z,64.23
2018-07-17T04:11:52.641Z,63.88
2018-07-17T04:12:58.600Z,63.52
2018-07-17T04:14:04.242Z,63.24
2018-07-17T04:15:09.905Z,61.94
2018-07-17T04:16:15.936Z,61.89
2018-07-17T04:17:21.937Z,62.57
2018-07-17T04:18:28.190Z,62.00
2018-07-17T04:19:34.202Z,61.86
2018-07-17T04:20:40.242Z,61.78
2018-07-17T04:21:46.228Z,62.15
2018-07-17T04:22:52.213Z,62.39
2018-07-17T04:23:58.230Z,62.01
2018-07-17T04:25:04.152Z,61.25
2018-07-17T04:26:10.145Z,61.04
2018-07-17T04:27:16.034Z,61.52
2018-07-17T04:28:22.066Z,61.83
2018-07-17T04:29:28.064Z,61.78
2018-07-17T04:30:34.462Z,61.88
2018-07-17T04:31:40.637Z,62.16
2018-07-17T04:32:46.835Z,61.62
2018-07-17T04:33:53.082Z,61.76
2018-07-17T04:34:59.843Z,61.88
2018-07-17T04:36:05.549Z,61.75
2018-07-17T04:37:11.530Z,61.58
2018-07-17T04:38:17.536Z,62.29
2018-07-17T04:39:23.721Z,61.82
2018-07-17T04:40:29.723Z,62.24
2018-07-17T04:41:35.802Z,61.88
2018-07-17T04:42:41.806Z,61.91
2018-07-17T04:43:47.782Z,61.95
2018-07-17T04:44:54.099Z,61.14
2018-07-17T04:46:00.434Z,61.52
2018-07-17T04:47:06.199Z,60.72
2018-07-17T04:48:12.712Z,60.99
2018-07-17T04:49:18.950Z,60.64
2018-07-17T04:50:25.261Z,60.50
2018-07-17T04:51:31.428Z,60.55
2018-07-17T04:52:37.460Z,59.72
2018-07-17T04:53:43.736Z,59.16
2018-07-17T04:54:49.900Z,59.52
2018-07-17T04:55:55.900Z,59.51
2018-07-17T04:57:01.968Z,60.09
2018-07-17T04:58:07.941Z,60.25
2018-07-17T04:59:13.946Z,60.57
2018-07-17T05:00:19.886Z,60.30
2018-07-17T05:01:25.889Z,60.04
2018-07-17T05:02:31.862Z,60.30
2018-07-17T05:03:37.855Z,60.34
2018-07-17T05:04:43.724Z,59.41
2018-07-17T05:05:49.733Z,59.17
2018-07-17T05:06:55.736Z,59.12
2018-07-17T05:08:01.734Z,59.17
2018-07-17T05:09:07.709Z,59.21
2018-07-17T05:10:13.732Z,59.67
2018-07-17T05:11:19.762Z,59.89
2018-07-17T05:12:25.766Z,59.61
2018-07-17T05:13:31.723Z,58.99
2018-07-17T05:14:37.684Z,59.45
2018-07-17T05:15:43.632Z,58.99
2018-07-17T05:16:49.639Z,59.14
2018-07-17T05:17:55.726Z,58.19
2018-07-17T05:19:01.624Z,58.39
2018-07-17T05:20:07.679Z,58.66
2018-07-17T05:21:13.820Z,58.10
2018-07-17T05:22:19.894Z,58.02
2018-07-17T05:23:25.915Z,58.34
2018-07-17T05:24:31.881Z,58.28
2018-07-17T05:25:37.845Z,58.43
2018-07-17T05:26:43.911Z,58.81
2018-07-17T05:27:49.904Z,58.97
2018-07-17T05:28:55.969Z,58.38
2018-07-17T05:30:02.168Z,58.05
2018-07-17T05:31:08.169Z,57.49
2018-07-17T05:32:14.246Z,57.73
2018-07-17T05:33:20.514Z,58.14
2018-07-17T05:34:26.537Z,57.39
2018-07-17T05:35:32.291Z,57.35
2018-07-17T05:36:38.500Z,57.28
2018-07-17T05:37:44.470Z,57.26
2018-07-17T05:38:50.462Z,56.73
2018-07-17T05:39:56.507Z,56.50
2018-07-17T05:41:02.490Z,56.65
2018-07-17T05:42:08.483Z,56.56
2018-07-17T05:43:14.531Z,56.68
2018-07-17T05:44:20.578Z,56.44
2018-07-17T05:45:26.880Z,55.98
2018-07-17T05:46:32.923Z,55.75
2018-07-17T05:47:38.931Z,55.37
2018-07-17T05:48:45.172Z,55.92
2018-07-17T05:49:51.191Z,56.43
2018-07-17T05:50:57.447Z,56.26
2018-07-17T05:52:03.527Z,55.70
2018-07-17T05:53:09.717Z,56.09
2018-07-17T05:54:15.979Z,55.66
2018-07-17T05:55:21.951Z,56.01
2018-07-17T05:56:27.902Z,55.55
2018-07-17T05:57:33.574Z,54.58
2018-07-17T05:58:39.561Z,54.73
2018-07-17T05:59:45.552Z,55.33
2018-07-17T06:00:51.872Z,54.81
2018-07-17T06:01:57.885Z,55.66
2018-07-17T06:03:03.514Z,55.70
2018-07-17T06:04:09.495Z,55.69
2018-07-17T06:05:15.148Z,54.40
2018-07-17T06:06:21.172Z,54.41
2018-07-17T06:07:27.157Z,54.34
2018-07-17T06:08:33.118Z,55.18
2018-07-17T06:09:39.135Z,54.90
2018-07-17T06:10:45.103Z,53.20
2018-07-17T06:11:51.102Z,53.12
2018-07-17T06:12:57.126Z,52.60
2018-07-17T06:14:02.909Z,52.48
2018-07-17T06:15:08.507Z,52.96
2018-07-17T06:16:14.498Z,53.04
2018-07-17T06:17:20.491Z,52.82
2018-07-17T06:18:26.471Z,52.10
2018-07-17T06:19:32.442Z,52.67
2018-07-17T06:20:38.424Z,53.12
2018-07-17T06:21:44.407Z,53.41
2018-07-17T06:22:50.405Z,54.34
2018-07-17T06:23:56.633Z,53.88
2018-07-17T06:25:02.667Z,54.42
2018-07-17T06:26:08.870Z,54.36
2018-07-17T06:27:14.467Z,53.11
2018-07-17T06:28:20.436Z,53.05
2018-07-17T06:29:26.395Z,52.73
2018-07-17T06:30:32.364Z,53.16
2018-07-17T06:31:38.024Z,52.58
2018-07-17T06:32:44.033Z,53.34
2018-07-17T06:33:50.008Z,52.84
2018-07-17T06:34:55.629Z,52.18
2018-07-17T06:36:01.657Z,52.83
2018-07-17T06:37:07.650Z,52.41
2018-07-17T06:38:13.363Z,52.54
2018-07-17T06:39:19.363Z,51.78
2018-07-17T06:40:25.349Z,51.07
2018-07-17T06:41:31.333Z,51.10
2018-07-17T06:42:37.323Z,51.13
2018-07-17T06:43:43.361Z,50.77
2018-07-17T06:44:49.316Z,52.25
2018-07-17T06:45:54.980Z,51.05
2018-07-17T06:47:00.940Z,51.38
2018-07-17T06:48:06.999Z,50.88
2018-07-17T06:49:12.958Z,50.43
2018-07-17T06:50:18.974Z,50.77
2018-07-17T06:51:25.135Z,49.20
2018-07-17T06:52:30.803Z,50.00
2018-07-17T06:53:36.796Z,49.71
2018-07-17T06:54:42.772Z,49.95
2018-07-17T06:55:48.756Z,50.40
2018-07-17T06:56:54.763Z,49.56
2018-07-17T06:58:00.790Z,49.15
2018-07-17T06:59:06.773Z,49.56
2018-07-17T07:00:12.777Z,49.88
2018-07-17T07:01:18.822Z,48.27
2018-07-17T07:02:24.835Z,47.90
2018-07-17T07:03:30.858Z,47.47
2018-07-17T07:04:36.827Z,47.29
2018-07-17T07:05:42.789Z,46.64
2018-07-17T07:06:48.495Z,47.00
2018-07-17T07:07:54.490Z,47.21
2018-07-17T07:09:00.520Z,47.97
2018-07-17T07:10:06.500Z,47.66
2018-07-17T07:11:12.572Z,47.85
2018-07-17T07:12:18.701Z,46.65
2018-07-17T07:13:24.688Z,45.70
2018-07-17T07:14:30.685Z,46.63
2018-07-17T07:15:36.305Z,46.34
2018-07-17T07:16:42.288Z,46.76
2018-07-17T07:17:48.271Z,45.84
2018-07-17T07:18:54.929Z,45.42
2018-07-17T07:20:00.899Z,46.17
2018-07-17T07:21:06.612Z,45.56
2018-07-17T07:22:12.568Z,45.21
2018-07-17T07:23:18.642Z,44.55
2018-07-17T07:24:24.761Z,44.45
2018-07-17T07:25:30.758Z,44.35
2018-07-17T07:26:36.431Z,43.92
2018-07-17T07:27:42.447Z,44.78
2018-07-17T07:28:48.196Z,44.80
2018-07-17T07:29:53.891Z,44.18
2018-07-17T07:30:59.643Z,43.87
2018-07-17T07:32:05.794Z,42.34
2018-07-17T07:33:11.837Z,42.76
2018-07-17T07:34:17.543Z,43.01
2018-07-17T07:35:23.227Z,43.04
2018-07-17T07:36:29.261Z,42.77
2018-07-17T07:37:36.222Z,42.38
2018-07-17T07:38:41.964Z,42.62
2018-07-17T07:39:47.651Z,41.58
2018-07-17T07:40:53.320Z,42.46
2018-07-17T07:41:58.991Z,41.81
2018-07-17T07:43:04.679Z,41.64
2018-07-17T07:44:10.087Z,41.84
2018-07-17T07:45:15.687Z,41.53
2018-07-17T07:46:21.663Z,41.72
2018-07-17T07:47:27.364Z,41.17
2018-07-17T07:48:33.098Z,41.49
2018-07-17T07:49:39.109Z,41.56
2018-07-17T07:50:45.066Z,41.00
2018-07-17T07:51:50.734Z,41.72
2018-07-17T07:52:56.416Z,40.58
2018-07-17T07:54:02.116Z,40.30
2018-07-17T07:55:08.159Z,40.60
2018-07-17T07:56:13.490Z,40.74
2018-07-17T07:57:19.167Z,41.30
2018-07-17T07:58:24.878Z,41.74
2018-07-17T07:59:30.559Z,41.30
2018-07-17T08:00:36.502Z,40.93
2018-07-17T08:01:42.259Z,41.22
2018-07-17T08:02:47.614Z,41.45
2018-07-17T08:03:53.667Z,40.55
2018-07-17T08:04:59.538Z,40.07
2018-07-17T08:06:05.241Z,40.52
2018-07-17T08:07:10.966Z,40.02
2018-07-17T08:08:16.653Z,40.17
2018-07-17T08:09:22.936Z,39.76
2018-07-17T08:10:28.607Z,40.17
2018-07-17T08:11:34.284Z,40.52
2018-07-17T08:12:40.031Z,40.50
2018-07-17T08:13:45.397Z,40.45
2018-07-17T08:14:51.062Z,39.54
2018-07-17T08:15:56.391Z,38.91
2018-07-17T08:17:01.713Z,39.10
2018-07-17T08:18:07.094Z,38.91
2018-07-17T08:19:12.446Z,38.76
2018-07-17T08:20:18.154Z,39.83
2018-07-17T08:21:23.852Z,39.41
2018-07-17T08:22:29.545Z,38.79
2018-07-17T08:23:35.287Z,38.22
2018-07-17T08:24:40.703Z,38.53
2018-07-17T08:25:46.387Z,38.22
2018-07-17T08:26:52.094Z,36.66
2018-07-17T08:27:58.058Z,37.30
2018-07-17T08:29:03.746Z,37.77
2018-07-17T08:30:09.451Z,37.96
2018-07-17T08:31:14.793Z,37.67
2018-07-17T08:32:20.493Z,37.69
2018-07-17T08:33:25.883Z,37.35
2018-07-17T08:34:31.591Z,38.13
2018-07-17T08:35:37.293Z,37.97
2018-07-17T08:36:43.000Z,38.30
2018-07-17T08:37:48.682Z,37.25
2018-07-17T08:38:55.318Z,36.79
2018-07-17T08:40:01.050Z,36.87
2018-07-17T08:41:06.726Z,36.63
2018-07-17T08:42:12.423Z,37.23
2018-07-17T08:43:18.157Z,37.26
2018-07-17T08:44:23.890Z,37.37
2018-07-17T08:45:29.565Z,37.08
2018-07-17T08:46:35.242Z,37.16
2018-07-17T08:47:40.930Z,37.36
2018-07-17T08:48:46.263Z,37.17
2018-07-17T08:49:51.628Z,37.06
2018-07-17T08:50:56.936Z,36.90
2018-07-17T08:52:02.652Z,36.58
2018-07-17T08:53:08.374Z,37.37
2018-07-17T08:54:14.080Z,37.69
2018-07-17T08:55:19.777Z,37.68
2018-07-17T08:56:25.535Z,37.31
2018-07-17T08:57:31.211Z,37.82
2018-07-17T08:58:36.601Z,36.54
2018-07-17T08:59:42.338Z,36.44
2018-07-17T09:00:48.011Z,37.08
2018-07-17T09:01:53.715Z,34.34
2018-07-17T09:02:59.411Z,34.54
2018-07-17T09:04:04.738Z,36.30
2018-07-17T09:05:10.472Z,35.12
2018-07-17T09:06:16.151Z,35.15
2018-07-17T09:07:21.518Z,34.96
2018-07-17T09:08:27.194Z,35.03
2018-07-17T09:09:32.869Z,35.79
2018-07-17T09:10:38.529Z,35.43
2018-07-17T09:11:44.206Z,35.97
2018-07-17T09:12:49.914Z,34.88
2018-07-17T09:13:56.282Z,35.42
2018-07-17T09:15:02.020Z,35.58
2018-07-17T09:16:07.716Z,35.31
2018-07-17T09:17:13.368Z,35.42
2018-07-17T09:18:19.009Z,34.24
2018-07-17T09:19:24.707Z,34.95
2018-07-17T09:20:30.423Z,34.29
2018-07-17T09:21:36.123Z,34.85
2018-07-17T09:22:41.988Z,34.12
2018-07-17T09:23:47.663Z,34.50
2018-07-17T09:24:53.375Z,35.23
2018-07-17T09:25:58.710Z,34.31
2018-07-17T09:27:03.711Z,33.89
2018-07-17T09:28:09.370Z,32.95
2018-07-17T09:29:15.261Z,33.42
2018-07-17T09:30:20.952Z,33.23
2018-07-17T09:31:26.649Z,32.40
2018-07-17T09:32:32.373Z,31.33
2018-07-17T09:33:38.122Z,30.83
2018-07-17T09:34:43.949Z,32.00
2018-07-17T09:35:49.662Z,32.86
2018-07-17T09:36:55.349Z,32.63
2018-07-17T09:38:01.011Z,32.71
2018-07-17T09:39:06.795Z,33.40
2018-07-17T09:40:12.652Z,32.03
2018-07-17T09:41:18.359Z,33.49
2018-07-17T09:42:24.259Z,32.73
2018-07-17T09:43:29.934Z,31.71
2018-07-17T09:44:35.686Z,30.94
2018-07-17T09:45:41.689Z,31.59
2018-07-17T09:46:47.380Z,32.07
2018-07-17T09:47:53.079Z,32.10
2018-07-17T09:48:58.777Z,31.07
2018-07-17T09:50:03.770Z,32.39
2018-07-17T09:51:09.132Z,31.43
2018-07-17T09:52:14.815Z,31.92
2018-07-17T09:53:20.499Z,31.10
2018-07-17T09:54:26.562Z,31.50
2018-07-17T09:55:32.437Z,30.03
2018-07-17T09:56:38.124Z,31.12
2018-07-17T09:57:43.826Z,30.97
2018-07-17T09:58:49.262Z,30.74
2018-07-17T09:59:54.944Z,30.79
2018-07-17T10:01:00.404Z,30.51
2018-07-17T10:03:37.291Z,30.13
2018-07-17T10:04:43.808Z,29.97
2018-07-17T10:05:49.845Z,30.05
2018-07-17T10:06:55.635Z,31.21
2018-07-17T10:08:01.520Z,31.05
2018-07-17T10:09:07.423Z,30.64
2018-07-17T10:10:13.326Z,30.05
2018-07-17T10:11:19.108Z,32.04
2018-07-17T10:12:25.003Z,30.63
2018-07-17T10:13:32.041Z,31.07
2018-07-17T10:14:37.895Z,31.10
2018-07-17T10:15:43.540Z,31.36
2018-07-17T10:16:49.331Z,30.92
2018-07-17T10:17:55.194Z,31.23
2018-07-17T10:19:01.028Z,32.32
2018-07-17T10:20:06.950Z,32.17
2018-07-17T10:21:12.955Z,30.90
2018-07-17T10:22:18.515Z,30.57
2018-07-17T10:23:24.227Z,31.06
2018-07-17T10:24:30.235Z,31.39
2018-07-17T10:25:36.075Z,31.05
2018-07-17T10:26:41.982Z,30.49
2018-07-17T10:27:48.253Z,30.83
2018-07-17T10:28:54.043Z,30.64
2018-07-17T10:30:00.191Z,32.03
2018-07-17T10:31:06.199Z,30.41
2018-07-17T10:32:12.079Z,30.66
2018-07-17T10:33:18.413Z,30.75
2018-07-17T10:34:24.433Z,31.78
2018-07-17T10:35:30.313Z,30.95
2018-07-17T10:36:36.165Z,30.63
2018-07-17T10:37:41.691Z,30.46
2018-07-17T10:38:47.449Z,31.09
2018-07-17T10:39:53.284Z,31.38
2018-07-17T10:40:59.807Z,32.07
2018-07-17T10:42:05.722Z,31.53
2018-07-17T10:43:11.539Z,31.13
2018-07-17T10:44:17.083Z,31.28
2018-07-17T10:45:22.827Z,30.86
2018-07-17T10:46:29.250Z,30.65
2018-07-17T10:47:35.025Z,31.34
2018-07-17T10:48:41.073Z,31.74
2018-07-17T10:49:47.032Z,30.94
2018-07-17T10:50:52.864Z,30.10
2018-07-17T10:51:58.723Z,29.98
2018-07-17T10:53:04.590Z,31.00
2018-07-17T10:54:11.197Z,31.33
2018-07-17T10:55:16.869Z,30.92
2018-07-17T10:56:23.393Z,31.05
2018-07-17T10:57:29.771Z,31.23
2018-07-17T10:58:35.569Z,31.51
2018-07-17T10:59:41.486Z,30.48
2018-07-17T11:00:46.944Z,30.67
2018-07-17T11:01:52.674Z,30.83
2018-07-17T11:02:58.400Z,30.75
2018-07-17T11:04:04.021Z,30.88
2018-07-17T11:05:09.465Z,31.62
2018-07-17T11:06:15.224Z,31.16
2018-07-17T11:07:21.092Z,30.58
2018-07-17T11:08:26.529Z,30.87
2018-07-17T11:09:32.580Z,30.98
2018-07-17T11:10:38.593Z,29.76
2018-07-17T11:11:44.522Z,29.64
2018-07-17T11:12:50.320Z,29.93
2018-07-17T11:13:56.159Z,29.66
2018-07-17T11:15:02.000Z,29.82
2018-07-17T11:16:07.934Z,31.14
2018-07-17T11:17:13.717Z,30.61
2018-07-17T11:18:19.584Z,30.71
2018-07-17T11:19:25.421Z,29.69
2018-07-17T11:20:30.615Z,30.66
2018-07-17T11:21:36.479Z,31.50
2018-07-17T11:22:41.937Z,30.35
2018-07-17T11:23:47.664Z,29.84
2018-07-17T11:24:53.489Z,28.12
2018-07-17T11:25:59.289Z,27.89
2018-07-17T11:27:04.502Z,28.26
2018-07-17T11:28:10.403Z,28.52
2018-07-17T11:29:16.275Z,28.26
2018-07-17T11:30:22.597Z,28.22
2018-07-17T11:31:28.998Z,28.40
2018-07-17T11:32:34.803Z,28.57
2018-07-17T11:33:40.589Z,27.99
2018-07-17T11:34:46.381Z,28.59
2018-07-17T11:35:52.518Z,28.46
2018-07-17T11:36:57.959Z,29.42
2018-07-17T11:38:03.695Z,29.58
2018-07-17T11:39:09.539Z,28.76
2018-07-17T11:40:16.077Z,28.71
2018-07-17T11:41:23.192Z,28.97
2018-07-17T11:42:29.063Z,28.83
2018-07-17T11:43:34.911Z,28.69
2018-07-17T11:44:40.816Z,29.98
2018-07-17T11:45:46.661Z,28.62
2018-07-17T11:46:52.448Z,29.54
2018-07-17T11:47:58.450Z,27.88
2018-07-17T11:49:04.008Z,27.96
2018-07-17T11:50:09.715Z,28.71
2018-07-17T11:51:16.768Z,28.27
2018-07-17T11:52:22.747Z,28.29
2018-07-17T11:53:28.564Z,29.04
2018-07-17T11:54:34.403Z,28.91
2018-07-17T11:55:40.238Z,29.16
2018-07-17T11:56:46.088Z,28.86
2018-07-17T11:57:51.943Z,28.40
2018-07-17T11:58:57.855Z,28.26
2018-07-17T12:00:03.724Z,28.86
2018-07-17T12:01:09.492Z,28.77
2018-07-17T12:02:15.329Z,28.45
2018-07-17T12:03:21.162Z,28.85
2018-07-17T12:04:26.978Z,28.59
2018-07-17T12:05:32.848Z,28.89
2018-07-17T12:06:38.816Z,29.19
2018-07-17T12:07:44.637Z,28.69
2018-07-17T12:08:51.159Z,28.61
2018-07-17T12:09:56.955Z,28.60
2018-07-17T12:11:02.799Z,27.80
2018-07-17T12:12:08.650Z,28.57
2018-07-17T12:13:14.553Z,28.74
2018-07-17T12:14:20.354Z,28.55
2018-07-17T12:15:26.239Z,28.65
2018-07-17T12:16:31.898Z,28.35
2018-07-17T12:17:37.422Z,27.26
2018-07-17T12:18:43.243Z,27.62
2018-07-17T12:19:49.192Z,27.87
2018-07-17T12:20:56.038Z,28.34
2018-07-17T12:22:01.935Z,27.23
2018-07-17T12:23:07.727Z,26.93
2018-07-17T12:24:13.746Z,27.46
2018-07-17T12:25:19.775Z,27.55
2018-07-17T12:26:25.785Z,27.75
2018-07-17T12:27:32.473Z,28.69
2018-07-17T12:28:38.414Z,27.71
2018-07-17T12:29:43.871Z,27.49
2018-07-17T12:30:49.775Z,28.21
2018-07-17T12:31:55.576Z,27.52
2018-07-17T12:33:01.403Z,27.64
2018-07-17T12:34:07.504Z,28.02
2018-07-17T12:35:13.280Z,28.09
2018-07-17T12:36:18.767Z,27.83
2018-07-17T12:37:24.542Z,27.31
2018-07-17T12:38:30.350Z,27.90
2018-07-17T12:39:36.182Z,28.67
2018-07-17T12:40:41.937Z,28.68
2018-07-17T12:41:47.768Z,27.36
2018-07-17T12:42:53.644Z,26.14
2018-07-17T12:43:59.179Z,27.05
2018-07-17T12:45:04.944Z,28.04
2018-07-17T12:46:10.339Z,27.08
2018-07-17T12:47:15.863Z,27.20
2018-07-17T12:48:22.481Z,27.59
2018-07-17T12:49:28.480Z,27.15
2018-07-17T12:50:33.908Z,27.22
2018-07-17T12:51:39.701Z,26.58
2018-07-17T12:52:45.606Z,26.96
2018-07-17T12:53:51.422Z,26.31
2018-07-17T12:54:57.293Z,26.69
2018-07-17T12:56:02.779Z,26.53
2018-07-17T12:57:08.506Z,27.18
2018-07-17T12:58:14.473Z,26.41
2018-07-17T12:59:20.255Z,26.57
2018-07-17T13:00:26.111Z,26.06
2018-07-17T13:01:31.880Z,26.13
2018-07-17T13:02:37.405Z,26.03
2018-07-17T13:03:43.395Z,26.69
2018-07-17T13:04:49.379Z,26.78
2018-07-17T13:05:55.228Z,27.52
2018-07-17T13:07:01.149Z,28.13
2018-07-17T13:08:07.084Z,28.37
2018-07-17T13:09:13.350Z,27.37
2018-07-17T13:10:19.236Z,27.11
2018-07-17T13:11:24.990Z,26.53
2018-07-17T13:12:30.396Z,26.56
2018-07-17T13:13:36.092Z,26.05
2018-07-17T13:14:41.886Z,26.83
2018-07-17T13:15:47.731Z,26.58
2018-07-17T13:16:53.487Z,27.27
2018-07-17T13:17:59.421Z,26.91
2018-07-17T13:19:05.491Z,26.43
2018-07-17T13:20:11.408Z,26.24
2018-07-17T13:21:17.242Z,27.04
2018-07-17T13:22:22.752Z,26.72
2018-07-17T13:23:28.510Z,26.43
2018-07-17T13:24:34.304Z,26.72
2018-07-17T13:25:40.141Z,26.87
2018-07-17T13:26:45.983Z,25.62
2018-07-17T13:27:51.667Z,25.73
2018-07-17T13:28:57.399Z,25.49
2018-07-17T13:30:02.678Z,26.15
2018-07-17T13:31:08.171Z,26.73
2018-07-17T13:32:13.984Z,26.76
2018-07-17T13:33:19.810Z,26.38
2018-07-17T13:34:25.263Z,25.90
2018-07-17T13:35:30.978Z,25.68
2018-07-17T13:36:36.455Z,25.48
2018-07-17T13:37:42.196Z,25.49
2018-07-17T13:38:48.171Z,26.15
2018-07-17T13:39:53.959Z,25.76
2018-07-17T13:40:59.762Z,25.63
2018-07-17T13:42:05.615Z,25.73
2018-07-17T13:43:11.507Z,25.66
2018-07-17T13:44:17.175Z,26.16
2018-07-17T13:45:22.970Z,26.23
2018-07-17T13:46:29.608Z,25.36
2018-07-17T13:47:35.376Z,25.51
2018-07-17T13:48:41.222Z,25.59
2018-07-17T13:49:46.983Z,25.55
2018-07-17T13:50:52.795Z,25.68
2018-07-17T13:51:58.618Z,25.63
2018-07-17T13:53:04.984Z,26.06
2018-07-17T13:54:10.808Z,24.93
2018-07-17T13:55:16.636Z,25.00
2018-07-17T13:56:22.659Z,25.26
2018-07-17T13:57:28.562Z,25.29
2018-07-17T13:58:34.459Z,25.16
2018-07-17T13:59:40.357Z,26.17
2018-07-17T14:00:46.335Z,24.99
2018-07-17T14:01:52.015Z,24.93
2018-07-17T14:02:57.511Z,25.38
2018-07-17T14:04:03.659Z,25.84
2018-07-17T14:05:09.550Z,25.66
2018-07-17T14:06:16.056Z,25.85
2018-07-17T14:07:21.994Z,25.60
2018-07-17T14:08:27.868Z,25.83
2018-07-17T14:09:33.870Z,25.63
2018-07-17T14:10:39.752Z,25.47